createdAt,value
2023-10-10T00:01:22.833Z,21.77
2023-10-10T00:04:26.195Z,23.50
2023-10-10T00:07:28.789Z,23.88
2023-10-10T00:10:32.191Z,26.27
2023-10-10T00:13:33.866Z,25.30
2023-10-10T00:16:39.089Z,22.45
2023-10-10T00:19:46.873Z,22.50
2023-10-10T00:22:49.456Z,22.55
2023-10-10T00:25:54.153Z,21.30
2023-10-10T00:28:56.336Z,15.43
2023-10-10T00:32:06.937Z,12.67
2023-10-10T00:35:10.730Z,14.02
2023-10-10T00:38:18.665Z,17.33
2023-10-10T00:41:23.976Z,16.77
2023-10-10T00:44:26.907Z,18.10
2023-10-10T00:47:32.538Z,17.33
2023-10-10T00:50:35.730Z,18.00
2023-10-10T00:56:45.660Z,14.27
2023-10-10T00:59:49.454Z,15.07
2023-10-10T01:03:05.106Z,16.05
2023-10-10T01:06:14.321Z,18.15
2023-10-10T01:09:18.514Z,17.85
2023-10-10T01:12:20.434Z,15.65
2023-10-10T01:15:35.970Z,15.07
2023-10-10T01:18:52.797Z,16.42
2023-10-10T01:21:59.189Z,16.73
2023-10-10T01:25:00.812Z,15.48
2023-10-10T01:28:14.988Z,16.20
2023-10-10T01:31:19.314Z,15.10
2023-10-10T01:34:44.547Z,14.70
2023-10-10T01:37:56.448Z,18.40
2023-10-10T01:41:16.088Z,15.27
2023-10-10T01:44:23.650Z,17.52
2023-10-10T01:47:28.304Z,22.25
2023-10-10T01:50:33.165Z,18.33
2023-10-10T01:53:41.238Z,15.93
2023-10-10T01:56:46.110Z,17.63
2023-10-10T01:59:48.298Z,19.88
2023-10-10T02:02:51.927Z,17.33
2023-10-10T02:05:57.048Z,18.23
2023-10-10T02:09:11.998Z,19.90
2023-10-10T02:12:17.056Z,14.98
2023-10-10T02:15:27.735Z,16.08
2023-10-10T02:18:45.523Z,16.80
2023-10-10T02:21:49.968Z,16.35
2023-10-10T02:24:59.656Z,16.25
2023-10-10T02:28:05.328Z,16.65
2023-10-10T02:31:07.484Z,16.92
2023-10-10T02:34:11.690Z,17.08
2023-10-10T02:37:22.195Z,15.32
2023-10-10T02:40:32.205Z,17.50
2023-10-10T02:43:34.773Z,20.50
2023-10-10T02:46:42.378Z,18.17
2023-10-10T02:49:45.800Z,18.95
2023-10-10T02:52:47.465Z,19.60
2023-10-10T02:55:52.876Z,16.85
2023-10-10T02:58:55.596Z,16.38
2023-10-10T03:01:58.694Z,16.73
2023-10-10T03:05:03.261Z,16.88
2023-10-10T03:08:17.143Z,18.95
2023-10-10T03:11:37.205Z,19.00
2023-10-10T03:14:44.520Z,20.50
2023-10-10T03:18:05.769Z,19.15
2023-10-10T03:21:14.236Z,22.52
2023-10-10T03:24:29.275Z,20.23
2023-10-10T03:27:49.915Z,23.65
2023-10-10T03:31:06.216Z,21.73
2023-10-10T03:34:36.425Z,20.73
2023-10-10T03:37:42.640Z,23.77
2023-10-10T03:41:07.559Z,20.45
2023-10-10T03:44:28.444Z,13.88
2023-10-10T03:47:48.463Z,15.55
2023-10-10T03:51:08.645Z,12.38
2023-10-10T03:54:28.745Z,14.65
2023-10-10T03:57:49.069Z,12.27
2023-10-10T04:01:13.493Z,13.63
2023-10-10T04:04:33.659Z,11.88
2023-10-10T04:07:53.973Z,14.35
2023-10-10T04:11:14.226Z,15.30
2023-10-10T04:14:34.597Z,15.07
2023-10-10T04:17:55.125Z,17.13
2023-10-10T04:21:16.058Z,18.17
2023-10-10T04:24:36.424Z,25.17
2023-10-10T04:27:56.414Z,23.45
2023-10-10T04:31:16.678Z,25.48
2023-10-10T04:34:36.948Z,20.63
2023-10-10T04:37:57.856Z,22.02
2023-10-10T04:41:18.065Z,21.45
2023-10-10T04:44:39.209Z,45.63
2023-10-10T04:47:59.485Z,25.40
2023-10-10T04:51:19.605Z,28.23
2023-10-10T04:54:40.133Z,31.98
2023-10-10T04:58:00.750Z,44.78
2023-10-10T05:01:27.830Z,30.40
2023-10-10T05:04:48.486Z,26.42
2023-10-10T05:08:10.378Z,37.38
2023-10-10T05:11:30.691Z,46.35
2023-10-10T05:14:51.229Z,34.42
2023-10-10T05:18:11.580Z,31.73
2023-10-10T05:21:31.827Z,28.58
2023-10-10T05:24:37.183Z,46.08
2023-10-10T05:27:42.339Z,40.35
2023-10-10T05:30:45.258Z,34.80
2023-10-10T05:33:48.319Z,29.92
2023-10-10T05:36:50.396Z,30.13
2023-10-10T05:39:57.397Z,34.80
2023-10-10T05:42:59.237Z,38.80
2023-10-10T05:46:02.699Z,28.42
2023-10-10T05:49:06.237Z,36.58
2023-10-10T05:52:08.533Z,37.45
2023-10-10T05:55:14.098Z,29.05
2023-10-10T05:58:16.452Z,30.20
2023-10-10T06:01:18.676Z,26.63
2023-10-10T06:04:20.516Z,29.70
2023-10-10T06:07:22.199Z,31.15
2023-10-10T06:10:29.946Z,27.23
2023-10-10T06:13:31.707Z,39.35
2023-10-10T06:16:33.785Z,38.67
2023-10-10T06:19:37.835Z,29.87
2023-10-10T06:22:45.097Z,30.90
2023-10-10T06:25:47.155Z,31.42
2023-10-10T06:28:54.651Z,30.85
2023-10-10T06:31:57.976Z,30.52
2023-10-10T06:35:25.911Z,29.98
2023-10-10T06:38:27.750Z,35.22
2023-10-10T06:41:37.069Z,36.33
2023-10-10T06:44:41.406Z,31.50
2023-10-10T06:47:46.126Z,27.40
2023-10-10T06:50:50.892Z,32.20
2023-10-10T06:53:56.211Z,28.17
2023-10-10T06:57:01.412Z,28.10
2023-10-10T07:00:17.970Z,28.50
2023-10-10T07:03:31.653Z,36.67
2023-10-10T07:06:34.955Z,28.88
2023-10-10T07:09:38.472Z,29.27
2023-10-10T07:12:41.030Z,37.67
2023-10-10T07:15:43.802Z,33.40
2023-10-10T07:18:45.788Z,39.53
2023-10-10T07:21:49.060Z,46.40
2023-10-10T07:24:56.898Z,40.42
2023-10-10T07:28:02.214Z,26.00
2023-10-10T07:31:04.169Z,29.42
2023-10-10T07:34:16.543Z,30.10
2023-10-10T07:37:19.175Z,27.75
2023-10-10T07:40:22.051Z,25.83
2023-10-10T07:43:28.700Z,25.45
2023-10-10T07:46:37.182Z,23.83
2023-10-10T07:49:42.087Z,25.73
2023-10-10T07:52:43.828Z,24.00
2023-10-10T07:55:55.251Z,23.75
2023-10-10T07:58:58.170Z,20.27
2023-10-10T08:02:00.326Z,20.95
2023-10-10T08:05:02.520Z,22.60
2023-10-10T08:08:14.363Z,20.42
2023-10-10T08:11:26.642Z,22.40
2023-10-10T08:14:33.066Z,21.17
2023-10-10T08:17:36.477Z,19.52
2023-10-10T08:20:44.324Z,19.98
2023-10-10T08:23:48.610Z,19.15
2023-10-10T08:26:53.160Z,22.65
2023-10-10T08:29:54.989Z,21.48
2023-10-10T08:32:58.073Z,22.75
2023-10-10T08:36:00.421Z,19.90
2023-10-10T08:39:29.089Z,20.60
2023-10-10T08:42:36.376Z,18.60
2023-10-10T08:45:41.540Z,20.45
2023-10-10T08:48:43.644Z,20.48
2023-10-10T08:51:46.686Z,19.98
2023-10-10T08:54:49.237Z,20.77
2023-10-10T08:57:52.763Z,30.52
2023-10-10T09:00:55.409Z,28.75
2023-10-10T09:03:58.819Z,22.75
2023-10-10T09:07:09.946Z,29.92
2023-10-10T09:10:15.579Z,21.85
2023-10-10T09:13:20.326Z,26.50
2023-10-10T09:16:42.617Z,19.65
2023-10-10T09:19:49.826Z,21.57
2023-10-10T09:23:05.696Z,22.50
2023-10-10T09:26:30.805Z,22.50
2023-10-10T09:29:35.664Z,22.83
2023-10-10T09:32:37.852Z,19.77
2023-10-10T09:35:41.305Z,17.40
2023-10-10T09:38:47.598Z,21.08
2023-10-10T09:41:58.341Z,18.60
2023-10-10T09:45:21.125Z,15.02
2023-10-10T09:48:41.458Z,15.85
2023-10-10T09:51:58.430Z,11.70
2023-10-10T09:55:10.415Z,12.32
2023-10-10T09:58:15.770Z,12.27
2023-10-10T10:01:25.408Z,10.30
2023-10-10T10:04:38.229Z,10.80
2023-10-10T10:11:12.954Z,9.20
2023-10-10T10:14:24.146Z,9.75
2023-10-10T10:17:57.049Z,7.28
2023-10-10T10:21:12.453Z,7.45
2023-10-10T10:24:17.358Z,7.85
2023-10-10T10:27:29.214Z,8.13
2023-10-10T10:30:48.004Z,10.18
2023-10-10T10:34:24.708Z,9.38
2023-10-10T10:37:29.561Z,9.02
2023-10-10T10:40:42.078Z,9.70
2023-10-10T10:43:55.501Z,7.32
2023-10-10T10:46:58.294Z,9.43
2023-10-10T10:50:00.170Z,7.68
2023-10-10T10:53:09.623Z,7.73
2023-10-10T10:56:17.810Z,7.57
2023-10-10T10:59:22.546Z,9.00
2023-10-10T11:02:32.058Z,8.50
2023-10-10T11:05:34.172Z,7.53
2023-10-10T11:12:10.266Z,18.95
2023-10-10T11:15:12.773Z,9.65
2023-10-10T11:18:14.986Z,8.15
2023-10-10T11:21:28.594Z,8.93
2023-10-10T11:24:32.870Z,9.73
2023-10-10T11:27:45.132Z,6.10
2023-10-10T11:30:47.138Z,9.07
2023-10-10T11:33:57.489Z,7.33
2023-10-10T11:37:14.669Z,9.88
2023-10-10T11:40:32.908Z,6.13
2023-10-10T11:43:38.483Z,6.28
2023-10-10T11:46:40.729Z,10.40
2023-10-10T11:49:42.832Z,8.52
2023-10-10T11:52:58.946Z,8.85
2023-10-10T11:56:02.979Z,7.60
2023-10-10T11:59:15.438Z,7.70
2023-10-10T12:02:30.800Z,6.72
2023-10-10T12:05:32.639Z,9.02
2023-10-10T12:08:37.631Z,7.20
2023-10-10T12:11:40.440Z,7.95
2023-10-10T12:17:45.898Z,12.07
2023-10-10T12:20:47.675Z,6.57
2023-10-10T12:23:59.531Z,6.30
2023-10-10T12:27:02.999Z,6.80
2023-10-10T12:30:06.235Z,6.45
2023-10-10T12:33:09.638Z,6.53
2023-10-10T12:36:11.429Z,13.68
2023-10-10T12:39:16.322Z,10.10
2023-10-10T12:42:18.693Z,8.57
2023-10-10T12:45:22.809Z,8.20
2023-10-10T12:48:24.611Z,6.20
2023-10-10T12:51:26.822Z,9.02
2023-10-10T12:54:36.068Z,11.85
2023-10-10T12:57:38.643Z,6.78
2023-10-10T13:00:41.352Z,6.45
2023-10-10T13:03:49.063Z,9.35
2023-10-10T13:06:52.902Z,6.70
2023-10-10T13:09:56.439Z,7.90
2023-10-10T13:12:58.536Z,7.70
2023-10-10T13:16:23.471Z,8.15
2023-10-10T13:19:25.264Z,8.15
2023-10-10T13:22:31.012Z,7.43
2023-10-10T13:25:38.772Z,8.43
2023-10-10T13:28:45.723Z,7.63
2023-10-10T13:31:47.820Z,4.68
2023-10-10T13:34:59.458Z,6.97
2023-10-10T13:38:01.370Z,7.80
2023-10-10T13:41:04.442Z,7.68
2023-10-10T13:44:12.298Z,9.55
2023-10-10T13:47:28.507Z,5.45
2023-10-10T13:50:47.557Z,6.78
2023-10-10T13:53:59.519Z,6.60
2023-10-10T13:57:01.356Z,5.10
2023-10-10T14:00:19.524Z,5.63
2023-10-10T14:03:30.202Z,6.43
2023-10-10T14:06:46.880Z,6.93
2023-10-10T14:10:01.758Z,10.02
2023-10-10T14:13:20.479Z,7.97
2023-10-10T14:16:23.741Z,11.45
2023-10-10T14:19:25.870Z,7.03
2023-10-10T14:22:28.700Z,7.95
2023-10-10T14:25:39.624Z,8.50
2023-10-10T14:28:42.593Z,8.67
2023-10-10T14:31:46.411Z,6.70
2023-10-10T14:34:48.429Z,7.28
2023-10-10T14:38:00.605Z,7.00
2023-10-10T14:41:03.556Z,7.03
2023-10-10T14:44:07.207Z,8.20
2023-10-10T14:47:11.051Z,6.53
2023-10-10T14:50:14.372Z,7.03
2023-10-10T14:53:16.790Z,5.97
2023-10-10T14:56:25.727Z,7.82
2023-10-10T14:59:32.778Z,7.72
2023-10-10T15:02:36.769Z,5.53
2023-10-10T15:05:47.816Z,5.30
2023-10-10T15:08:49.671Z,6.40
2023-10-10T15:11:53.594Z,5.40
2023-10-10T15:14:58.590Z,6.55
2023-10-10T15:18:00.398Z,7.35
2023-10-10T15:21:02.092Z,7.80
2023-10-10T15:24:06.125Z,6.53
2023-10-10T15:27:07.854Z,6.68
2023-10-10T15:30:10.102Z,5.40
2023-10-10T15:33:18.632Z,9.82
2023-10-10T15:36:20.360Z,5.55
2023-10-10T15:39:23.758Z,12.83
2023-10-10T15:42:25.348Z,5.47
2023-10-10T15:45:27.041Z,7.77
2023-10-10T15:48:28.904Z,6.60
2023-10-10T15:51:39.264Z,5.13
2023-10-10T15:54:40.819Z,6.90
2023-10-10T15:57:42.342Z,6.32
2023-10-10T16:00:44.671Z,5.40
2023-10-10T16:03:48.679Z,6.82
2023-10-10T16:06:51.711Z,8.55
2023-10-10T16:09:53.704Z,7.25
2023-10-10T16:12:56.828Z,7.23
2023-10-10T16:15:58.876Z,6.85
2023-10-10T16:19:02.644Z,7.43
2023-10-10T16:22:06.396Z,9.20
2023-10-10T16:25:14.949Z,9.20
2023-10-10T16:28:16.652Z,7.78
2023-10-10T16:31:18.846Z,8.80
2023-10-10T16:34:20.558Z,9.43
2023-10-10T16:37:24.971Z,8.60
2023-10-10T16:40:30.660Z,13.85
2023-10-10T16:43:43.106Z,44.28
2023-10-10T16:46:53.834Z,35.72
2023-10-10T16:49:56.443Z,9.65
2023-10-10T16:53:09.865Z,19.98
2023-10-10T16:56:16.276Z,8.98
2023-10-10T16:59:18.420Z,8.00
2023-10-10T17:02:20.359Z,7.03
2023-10-10T17:05:24.912Z,7.60
2023-10-10T17:08:26.668Z,8.85
2023-10-10T17:11:31.107Z,8.07
2023-10-10T17:14:35.374Z,7.20
2023-10-10T17:17:38.129Z,7.82
2023-10-10T17:20:40.062Z,9.65
2023-10-10T17:23:42.193Z,6.88
2023-10-10T17:26:45.325Z,7.37
2023-10-10T17:29:47.588Z,6.15
2023-10-10T17:32:51.492Z,5.32
2023-10-10T17:35:53.212Z,6.47
2023-10-10T17:38:55.938Z,4.78
2023-10-10T17:42:12.993Z,6.05
2023-10-10T17:45:14.821Z,6.22
2023-10-10T17:48:18.523Z,7.20
2023-10-10T17:51:25.005Z,11.10
2023-10-10T17:54:29.993Z,9.15
2023-10-10T17:57:36.806Z,8.77
2023-10-10T18:00:38.642Z,9.63
2023-10-10T18:03:41.575Z,6.63
2023-10-10T18:06:43.522Z,8.10
2023-10-10T18:09:55.657Z,8.05
2023-10-10T18:13:08.673Z,6.97
2023-10-10T18:16:23.209Z,9.93
2023-10-10T18:19:34.285Z,9.00
2023-10-10T18:22:47.205Z,7.80
2023-10-10T18:25:55.125Z,10.98
2023-10-10T18:28:58.036Z,8.02
2023-10-10T18:32:09.177Z,10.10
2023-10-10T18:35:19.999Z,8.38
2023-10-10T18:38:22.679Z,9.23
2023-10-10T18:41:28.925Z,5.60
2023-10-10T18:44:34.171Z,11.75
2023-10-10T18:47:38.907Z,9.13
2023-10-10T18:50:42.009Z,11.05
2023-10-10T18:53:51.301Z,7.40
2023-10-10T18:56:55.795Z,9.68
2023-10-10T18:59:58.054Z,8.05
2023-10-10T19:06:14.647Z,7.93
2023-10-10T19:09:21.096Z,10.15
2023-10-10T19:12:31.400Z,8.27
2023-10-10T19:15:43.948Z,10.77
2023-10-10T19:18:51.358Z,10.48
2023-10-10T19:22:07.263Z,10.82
2023-10-10T19:25:14.222Z,11.85
2023-10-10T19:28:20.369Z,8.52
2023-10-10T19:31:28.861Z,7.35
2023-10-10T19:34:31.123Z,9.75
2023-10-10T19:37:35.052Z,7.60
2023-10-10T19:40:38.010Z,10.45
2023-10-10T19:43:43.245Z,13.40
2023-10-10T19:47:10.889Z,11.02
2023-10-10T19:50:22.341Z,7.75
2023-10-10T19:53:31.764Z,11.68
2023-10-10T19:57:11.639Z,12.15
2023-10-10T20:00:23.964Z,10.55
2023-10-10T20:03:29.847Z,8.27
2023-10-10T20:06:35.823Z,8.32
2023-10-10T20:09:47.507Z,8.15
2023-10-10T20:13:08.601Z,8.05
2023-10-10T20:16:16.548Z,10.02
2023-10-10T20:19:35.522Z,11.40
2023-10-10T20:22:47.650Z,12.85
2023-10-10T20:25:54.011Z,9.18
2023-10-10T20:28:59.360Z,12.02
2023-10-10T20:32:01.485Z,10.35
2023-10-10T20:35:13.316Z,7.75
2023-10-10T20:38:24.726Z,10.85
2023-10-10T20:41:30.349Z,8.13
2023-10-10T20:44:42.541Z,9.32
2023-10-10T20:47:56.323Z,11.52
2023-10-10T20:51:05.786Z,9.48
2023-10-10T20:54:09.794Z,9.40
2023-10-10T20:57:21.330Z,8.35
2023-10-10T21:00:31.366Z,10.43
2023-10-10T21:03:40.939Z,10.32
2023-10-10T21:06:56.577Z,11.73
2023-10-10T21:10:01.088Z,12.10
2023-10-10T21:13:06.521Z,8.75
2023-10-10T21:16:16.871Z,13.75
2023-10-10T21:19:39.540Z,11.13
2023-10-10T21:22:42.279Z,13.65
2023-10-10T21:25:43.891Z,10.60
2023-10-10T21:28:45.823Z,11.85
2023-10-10T21:31:51.268Z,11.50
2023-10-10T21:34:52.925Z,11.52
2023-10-10T21:37:56.689Z,8.57
2023-10-10T21:41:04.805Z,7.43
2023-10-10T21:44:06.480Z,10.85
2023-10-10T21:47:09.454Z,11.27
2023-10-10T21:50:11.368Z,11.90
2023-10-10T21:53:13.022Z,11.55
2023-10-10T21:56:14.675Z,10.95
2023-10-10T21:59:20.644Z,12.65
2023-10-10T22:02:22.357Z,11.40
2023-10-10T22:05:25.483Z,10.50
2023-10-10T22:08:27.294Z,8.52
2023-10-10T22:11:29.023Z,15.93
2023-10-10T22:14:30.612Z,9.85
2023-10-10T22:17:32.732Z,10.10
2023-10-10T22:20:37.519Z,10.27
2023-10-10T22:23:39.404Z,9.73
2023-10-10T22:26:41.227Z,12.40
2023-10-10T22:29:43.503Z,9.63
2023-10-10T22:32:48.945Z,11.53
2023-10-10T22:35:51.033Z,9.73
2023-10-10T22:38:53.964Z,10.20
2023-10-10T22:41:55.745Z,9.68
2023-10-10T22:44:58.947Z,15.23
2023-10-10T22:51:02.923Z,11.77
2023-10-10T22:54:07.090Z,17.17
2023-10-10T22:57:08.789Z,12.70
2023-10-10T23:00:14.664Z,10.23
2023-10-10T23:03:20.444Z,10.05
2023-10-10T23:06:23.623Z,9.63
2023-10-10T23:09:29.222Z,10.60
2023-10-10T23:12:32.733Z,8.57
2023-10-10T23:15:37.826Z,8.75
2023-10-10T23:18:40.681Z,9.48
2023-10-10T23:21:42.552Z,10.27
2023-10-10T23:24:44.242Z,9.90
2023-10-10T23:27:46.854Z,8.48
2023-10-10T23:30:48.530Z,10.27
2023-10-10T23:33:50.909Z,10.40
2023-10-10T23:36:52.613Z,9.45
2023-10-10T23:39:54.273Z,9.90
2023-10-10T23:42:55.888Z,11.95
2023-10-10T23:46:01.216Z,10.93
2023-10-10T23:49:04.601Z,12.02
2023-10-10T23:52:08.035Z,9.75
2023-10-10T23:55:12.245Z,11.63
2023-10-10T23:58:14.205Z,10.40
